sensor_id;sensor_type;location;lat;lon;timestamp;temperature;humidity
50969;DHT22;36982;51.474;7.228;2023-02-01T00:01:37;6.00;99.90
50969;DHT22;36982;51.474;7.228;2023-02-01T00:04:03;6.00;99.90
50969;DHT22;36982;51.474;7.228;2023-02-01T00:06:28;5.90;99.90
50969;DHT22;36982;51.474;7.228;2023-02-01T00:08:54;5.90;99.90
50969;DHT22;36982;51.474;7.228;2023-02-01T00:11:21;5.90;99.90
50969;DHT22;36982;51.474;7.228;2023-02-01T00:13:47;6.00;99.90
50969;DHT22;36982;51.474;7.228;2023-02-01T00:16:18;5.90;99.90
50969;DHT22;36982;51.474;7.228;2023-02-01T00:18:45;5.90;99.90
50969;DHT22;36982;51.474;7.228;2023-02-01T00:21:12;5.90;99.90
50969;DHT22;36982;51.474;7.228;2023-02-01T00:23:38;5.90;99.90
50969;DHT22;36982;51.474;7.228;2023-02-01T00:26:11;5.90;99.90
50969;DHT22;36982;51.474;7.228;2023-02-01T00:28:38;5.90;99.90
50969;DHT22;36982;51.474;7.228;2023-02-01T00:31:04;5.90;99.90
50969;DHT22;36982;51.474;7.228;2023-02-01T00:33:31;6.00;99.90
50969;DHT22;36982;51.474;7.228;2023-02-01T00:35:58;6.00;99.90
50969;DHT22;36982;51.474;7.228;2023-02-01T00:38:28;6.00;99.90
50969;DHT22;36982;51.474;7.228;2023-02-01T00:40:54;6.00;99.90
50969;DHT22;36982;51.474;7.228;2023-02-01T00:43:20;6.00;99.90
50969;DHT22;36982;51.474;7.228;2023-02-01T00:45:46;6.00;99.90
50969;DHT22;36982;51.474;7.228;2023-02-01T00:48:12;6.10;99.90
50969;DHT22;36982;51.474;7.228;2023-02-01T00:50:44;6.00;99.90
50969;DHT22;36982;51.474;7.228;2023-02-01T00:53:10;6.00;99.90
50969;DHT22;36982;51.474;7.228;2023-02-01T00:55:36;5.90;99.90
50969;DHT22;36982;51.474;7.228;2023-02-01T00:58:02;6.00;99.90
50969;DHT22;36982;51.474;7.228;2023-02-01T01:00:28;6.00;99.90
50969;DHT22;36982;51.474;7.228;2023-02-01T01:02:54;6.00;99.90
50969;DHT22;36982;51.474;7.228;2023-02-01T01:05:21;6.00;99.90
50969;DHT22;36982;51.474;7.228;2023-02-01T01:07:46;6.00;99.90
50969;DHT22;36982;51.474;7.228;2023-02-01T01:10:12;6.00;99.90
50969;DHT22;36982;51.474;7.228;2023-02-01T01:12:38;6.10;99.90
50969;DHT22;36982;51.474;7.228;2023-02-01T01:15:04;6.10;99.90
50969;DHT22;36982;51.474;7.228;2023-02-01T01:17:31;6.10;99.90
50969;DHT22;36982;51.474;7.228;2023-02-01T01:19:57;6.00;99.90
50969;DHT22;36982;51.474;7.228;2023-02-01T01:22:22;6.00;99.90
50969;DHT22;36982;51.474;7.228;2023-02-01T01:24:48;6.00;99.90
50969;DHT22;36982;51.474;7.228;2023-02-01T01:27:14;6.10;99.90
50969;DHT22;36982;51.474;7.228;2023-02-01T01:29:40;6.10;99.90
50969;DHT22;36982;51.474;7.228;2023-02-01T01:32:05;6.10;99.90
50969;DHT22;36982;51.474;7.228;2023-02-01T01:34:31;6.20;99.90
50969;DHT22;36982;51.474;7.228;2023-02-01T01:36:56;6.20;99.90
50969;DHT22;36982;51.474;7.228;2023-02-01T01:39:22;6.10;99.90
50969;DHT22;36982;51.474;7.228;2023-02-01T01:41:47;6.10;99.90
50969;DHT22;36982;51.474;7.228;2023-02-01T01:47:16;6.20;99.90
50969;DHT22;36982;51.474;7.228;2023-02-01T01:49:42;6.20;99.90
50969;DHT22;36982;51.474;7.228;2023-02-01T01:52:08;6.30;99.90
50969;DHT22;36982;51.474;7.228;2023-02-01T01:54:40;6.10;99.90
50969;DHT22;36982;51.474;7.228;2023-02-01T01:57:21;6.20;99.90
50969;DHT22;36982;51.474;7.228;2023-02-01T01:59:52;6.20;99.90
50969;DHT22;36982;51.474;7.228;2023-02-01T02:02:20;6.10;99.90
50969;DHT22;36982;51.474;7.228;2023-02-01T02:04:47;6.10;99.90
50969;DHT22;36982;51.474;7.228;2023-02-01T02:07:19;6.10;99.90
50969;DHT22;36982;51.474;7.228;2023-02-01T02:09:45;6.00;99.90
50969;DHT22;36982;51.474;7.228;2023-02-01T02:12:11;6.10;99.90
50969;DHT22;36982;51.474;7.228;2023-02-01T02:14:37;6.10;99.90
50969;DHT22;36982;51.474;7.228;2023-02-01T02:17:18;6.10;99.90
50969;DHT22;36982;51.474;7.228;2023-02-01T02:28:12;6.10;99.90
50969;DHT22;36982;51.474;7.228;2023-02-01T02:36:16;6.10;99.90
50969;DHT22;36982;51.474;7.228;2023-02-01T02:38:47;6.00;99.90
50969;DHT22;36982;51.474;7.228;2023-02-01T02:41:32;6.00;99.90
50969;DHT22;36982;51.474;7.228;2023-02-01T02:44:39;6.00;99.90
50969;DHT22;36982;51.474;7.228;2023-02-01T02:47:44;6.00;99.90
50969;DHT22;36982;51.474;7.228;2023-02-01T02:53:17;6.00;99.90
50969;DHT22;36982;51.474;7.228;2023-02-01T02:56:05;5.90;99.90
50969;DHT22;36982;51.474;7.228;2023-02-01T02:58:50;5.80;99.90
50969;DHT22;36982;51.474;7.228;2023-02-01T03:01:37;5.80;99.90
50969;DHT22;36982;51.474;7.228;2023-02-01T03:04:22;5.80;99.90
50969;DHT22;36982;51.474;7.228;2023-02-01T03:06:49;5.80;99.90
50969;DHT22;36982;51.474;7.228;2023-02-01T03:11:52;5.80;99.90
50969;DHT22;36982;51.474;7.228;2023-02-01T03:14:41;5.90;99.90
50969;DHT22;36982;51.474;7.228;2023-02-01T03:17:14;5.80;99.90
50969;DHT22;36982;51.474;7.228;2023-02-01T03:19:43;5.80;99.90
50969;DHT22;36982;51.474;7.228;2023-02-01T03:22:17;5.80;99.90
50969;DHT22;36982;51.474;7.228;2023-02-01T03:24:55;5.80;99.90
50969;DHT22;36982;51.474;7.228;2023-02-01T03:27:41;5.80;99.90
50969;DHT22;36982;51.474;7.228;2023-02-01T03:32:40;5.80;99.90
50969;DHT22;36982;51.474;7.228;2023-02-01T03:35:32;5.70;99.90
50969;DHT22;36982;51.474;7.228;2023-02-01T03:40:51;5.80;99.90
50969;DHT22;36982;51.474;7.228;2023-02-01T03:43:20;5.80;99.90
50969;DHT22;36982;51.474;7.228;2023-02-01T03:45:52;5.70;99.90
50969;DHT22;36982;51.474;7.228;2023-02-01T03:48:20;5.80;99.90
50969;DHT22;36982;51.474;7.228;2023-02-01T03:50:50;5.80;99.90
50969;DHT22;36982;51.474;7.228;2023-02-01T03:53:19;5.90;99.90
50969;DHT22;36982;51.474;7.228;2023-02-01T03:55:47;5.80;99.90
50969;DHT22;36982;51.474;7.228;2023-02-01T03:58:15;5.80;99.90
50969;DHT22;36982;51.474;7.228;2023-02-01T04:00:51;5.80;99.90
50969;DHT22;36982;51.474;7.228;2023-02-01T04:03:17;5.90;99.90
50969;DHT22;36982;51.474;7.228;2023-02-01T04:05:42;5.80;99.90
50969;DHT22;36982;51.474;7.228;2023-02-01T04:08:08;5.80;99.90
50969;DHT22;36982;51.474;7.228;2023-02-01T04:10:34;5.80;99.90
50969;DHT22;36982;51.474;7.228;2023-02-01T04:12:59;5.80;99.90
50969;DHT22;36982;51.474;7.228;2023-02-01T04:15:25;5.80;99.90
50969;DHT22;36982;51.474;7.228;2023-02-01T04:17:50;5.80;99.90
50969;DHT22;36982;51.474;7.228;2023-02-01T04:20:16;5.80;99.90
50969;DHT22;36982;51.474;7.228;2023-02-01T04:22:45;5.80;99.90
50969;DHT22;36982;51.474;7.228;2023-02-01T04:25:10;5.90;99.90
50969;DHT22;36982;51.474;7.228;2023-02-01T04:27:36;5.90;99.90
50969;DHT22;36982;51.474;7.228;2023-02-01T04:30:03;6.00;99.90
50969;DHT22;36982;51.474;7.228;2023-02-01T04:32:29;5.90;99.90
50969;DHT22;36982;51.474;7.228;2023-02-01T04:34:54;5.90;99.90
50969;DHT22;36982;51.474;7.228;2023-02-01T04:37:20;6.00;99.90
50969;DHT22;36982;51.474;7.228;2023-02-01T04:39:45;6.00;99.90
50969;DHT22;36982;51.474;7.228;2023-02-01T04:42:11;6.00;99.90
50969;DHT22;36982;51.474;7.228;2023-02-01T04:44:36;6.00;99.90
50969;DHT22;36982;51.474;7.228;2023-02-01T04:47:04;6.00;99.90
50969;DHT22;36982;51.474;7.228;2023-02-01T04:49:30;6.00;99.90
50969;DHT22;36982;51.474;7.228;2023-02-01T04:51:56;5.90;99.90
50969;DHT22;36982;51.474;7.228;2023-02-01T04:54:22;5.90;99.90
50969;DHT22;36982;51.474;7.228;2023-02-01T04:56:47;6.00;99.90
50969;DHT22;36982;51.474;7.228;2023-02-01T04:59:13;5.90;99.90
50969;DHT22;36982;51.474;7.228;2023-02-01T05:01:38;5.90;99.90
50969;DHT22;36982;51.474;7.228;2023-02-01T05:04:04;5.90;99.90
50969;DHT22;36982;51.474;7.228;2023-02-01T05:06:29;5.90;99.90
50969;DHT22;36982;51.474;7.228;2023-02-01T05:08:55;5.90;99.90
50969;DHT22;36982;51.474;7.228;2023-02-01T05:11:20;5.90;99.90
50969;DHT22;36982;51.474;7.228;2023-02-01T05:14:04;6.00;99.90
50969;DHT22;36982;51.474;7.228;2023-02-01T05:16:30;5.90;99.90
50969;DHT22;36982;51.474;7.228;2023-02-01T05:18:56;5.90;99.90
50969;DHT22;36982;51.474;7.228;2023-02-01T05:21:21;5.80;99.90
50969;DHT22;36982;51.474;7.228;2023-02-01T05:23:47;5.80;99.90
50969;DHT22;36982;51.474;7.228;2023-02-01T05:26:31;5.80;99.90
50969;DHT22;36982;51.474;7.228;2023-02-01T05:28:57;5.80;99.90
50969;DHT22;36982;51.474;7.228;2023-02-01T05:31:23;5.80;99.90
50969;DHT22;36982;51.474;7.228;2023-02-01T05:33:49;5.80;99.90
50969;DHT22;36982;51.474;7.228;2023-02-01T05:36:15;5.80;99.90
50969;DHT22;36982;51.474;7.228;2023-02-01T05:38:40;5.80;99.90
50969;DHT22;36982;51.474;7.228;2023-02-01T05:41:12;5.80;99.90
50969;DHT22;36982;51.474;7.228;2023-02-01T05:43:38;5.80;99.90
50969;DHT22;36982;51.474;7.228;2023-02-01T05:46:04;5.80;99.90
50969;DHT22;36982;51.474;7.228;2023-02-01T05:48:29;5.80;99.90
50969;DHT22;36982;51.474;7.228;2023-02-01T05:50:55;5.80;99.90
50969;DHT22;36982;51.474;7.228;2023-02-01T05:53:21;5.80;99.90
50969;DHT22;36982;51.474;7.228;2023-02-01T05:55:46;5.70;99.90
50969;DHT22;36982;51.474;7.228;2023-02-01T05:58:12;5.80;99.90
50969;DHT22;36982;51.474;7.228;2023-02-01T06:00:38;5.70;99.90
50969;DHT22;36982;51.474;7.228;2023-02-01T06:03:04;5.70;99.90
50969;DHT22;36982;51.474;7.228;2023-02-01T06:05:29;5.70;99.90
50969;DHT22;36982;51.474;7.228;2023-02-01T06:07:55;5.60;99.90
50969;DHT22;36982;51.474;7.228;2023-02-01T06:10:21;5.60;99.90
50969;DHT22;36982;51.474;7.228;2023-02-01T06:12:47;5.70;99.90
50969;DHT22;36982;51.474;7.228;2023-02-01T06:15:13;5.60;99.90
50969;DHT22;36982;51.474;7.228;2023-02-01T06:17:41;5.60;99.90
50969;DHT22;36982;51.474;7.228;2023-02-01T06:20:09;5.60;99.90
50969;DHT22;36982;51.474;7.228;2023-02-01T06:22:34;5.70;99.90
50969;DHT22;36982;51.474;7.228;2023-02-01T06:25:02;5.80;99.90
50969;DHT22;36982;51.474;7.228;2023-02-01T06:27:27;5.80;99.90
50969;DHT22;36982;51.474;7.228;2023-02-01T06:29:53;5.80;99.90
50969;DHT22;36982;51.474;7.228;2023-02-01T06:32:20;5.80;99.90
50969;DHT22;36982;51.474;7.228;2023-02-01T06:34:46;5.80;99.90
50969;DHT22;36982;51.474;7.228;2023-02-01T06:37:11;5.90;99.90
50969;DHT22;36982;51.474;7.228;2023-02-01T06:39:37;5.90;99.90
50969;DHT22;36982;51.474;7.228;2023-02-01T06:42:03;5.80;99.90
50969;DHT22;36982;51.474;7.228;2023-02-01T06:44:28;5.90;99.90
50969;DHT22;36982;51.474;7.228;2023-02-01T06:46:54;5.90;99.90
50969;DHT22;36982;51.474;7.228;2023-02-01T06:49:20;5.90;99.90
50969;DHT22;36982;51.474;7.228;2023-02-01T06:51:46;5.90;99.90
50969;DHT22;36982;51.474;7.228;2023-02-01T06:54:12;5.90;99.90
50969;DHT22;36982;51.474;7.228;2023-02-01T06:56:37;5.90;99.90
50969;DHT22;36982;51.474;7.228;2023-02-01T06:59:04;5.90;99.90
50969;DHT22;36982;51.474;7.228;2023-02-01T07:01:30;5.90;99.90
50969;DHT22;36982;51.474;7.228;2023-02-01T07:03:56;5.90;99.90
50969;DHT22;36982;51.474;7.228;2023-02-01T07:06:22;5.90;99.90
50969;DHT22;36982;51.474;7.228;2023-02-01T07:08:47;5.80;99.90
50969;DHT22;36982;51.474;7.228;2023-02-01T07:11:14;5.80;99.90
50969;DHT22;36982;51.474;7.228;2023-02-01T07:13:40;5.90;99.90
50969;DHT22;36982;51.474;7.228;2023-02-01T07:16:09;5.90;99.90
50969;DHT22;36982;51.474;7.228;2023-02-01T07:18:35;6.00;99.90
50969;DHT22;36982;51.474;7.228;2023-02-01T07:21:00;6.00;99.90
50969;DHT22;36982;51.474;7.228;2023-02-01T07:23:27;6.00;99.90
50969;DHT22;36982;51.474;7.228;2023-02-01T07:25:57;6.00;99.90
50969;DHT22;36982;51.474;7.228;2023-02-01T07:28:23;6.00;99.90
50969;DHT22;36982;51.474;7.228;2023-02-01T07:30:49;6.00;99.90
50969;DHT22;36982;51.474;7.228;2023-02-01T07:33:21;6.00;99.90
50969;DHT22;36982;51.474;7.228;2023-02-01T07:35:47;6.00;99.90
50969;DHT22;36982;51.474;7.228;2023-02-01T07:38:13;6.00;99.90
50969;DHT22;36982;51.474;7.228;2023-02-01T07:40:39;6.00;99.90
50969;DHT22;36982;51.474;7.228;2023-02-01T07:43:05;6.00;99.90
50969;DHT22;36982;51.474;7.228;2023-02-01T07:45:34;6.10;99.90
50969;DHT22;36982;51.474;7.228;2023-02-01T07:48:01;6.10;99.90
50969;DHT22;36982;51.474;7.228;2023-02-01T07:50:26;6.10;99.90
50969;DHT22;36982;51.474;7.228;2023-02-01T07:52:52;6.10;99.90
50969;DHT22;36982;51.474;7.228;2023-02-01T07:55:19;6.10;99.90
50969;DHT22;36982;51.474;7.228;2023-02-01T07:57:44;6.10;99.90
50969;DHT22;36982;51.474;7.228;2023-02-01T08:00:11;6.10;99.90
50969;DHT22;36982;51.474;7.228;2023-02-01T08:02:58;6.10;99.90
50969;DHT22;36982;51.474;7.228;2023-02-01T08:05:24;6.10;99.90
50969;DHT22;36982;51.474;7.228;2023-02-01T08:07:49;6.10;99.90
50969;DHT22;36982;51.474;7.228;2023-02-01T08:10:16;6.10;99.90
50969;DHT22;36982;51.474;7.228;2023-02-01T08:12:42;6.10;99.90
50969;DHT22;36982;51.474;7.228;2023-02-01T08:15:07;6.10;99.90
50969;DHT22;36982;51.474;7.228;2023-02-01T08:17:33;6.20;99.90
50969;DHT22;36982;51.474;7.228;2023-02-01T08:19:59;6.20;99.90
50969;DHT22;36982;51.474;7.228;2023-02-01T08:22:24;6.20;99.90
50969;DHT22;36982;51.474;7.228;2023-02-01T08:24:50;6.20;99.90
50969;DHT22;36982;51.474;7.228;2023-02-01T08:27:15;6.20;99.90
50969;DHT22;36982;51.474;7.228;2023-02-01T08:29:41;6.20;99.90
50969;DHT22;36982;51.474;7.228;2023-02-01T08:32:07;6.20;99.90
50969;DHT22;36982;51.474;7.228;2023-02-01T08:34:32;6.20;99.90
50969;DHT22;36982;51.474;7.228;2023-02-01T08:36:58;6.20;99.90
50969;DHT22;36982;51.474;7.228;2023-02-01T08:39:24;6.20;99.90
50969;DHT22;36982;51.474;7.228;2023-02-01T08:41:50;6.20;99.90
50969;DHT22;36982;51.474;7.228;2023-02-01T08:44:34;6.30;99.90
50969;DHT22;36982;51.474;7.228;2023-02-01T08:47:01;6.30;99.90
50969;DHT22;36982;51.474;7.228;2023-02-01T08:49:26;6.30;99.90
50969;DHT22;36982;51.474;7.228;2023-02-01T08:51:52;6.30;99.90
50969;DHT22;36982;51.474;7.228;2023-02-01T08:54:17;6.30;99.90
50969;DHT22;36982;51.474;7.228;2023-02-01T08:56:43;6.30;99.90
50969;DHT22;36982;51.474;7.228;2023-02-01T08:59:08;6.30;99.90
50969;DHT22;36982;51.474;7.228;2023-02-01T09:01:34;6.40;99.90
50969;DHT22;36982;51.474;7.228;2023-02-01T09:04:00;6.40;99.90
50969;DHT22;36982;51.474;7.228;2023-02-01T09:06:25;6.50;99.90
50969;DHT22;36982;51.474;7.228;2023-02-01T09:08:51;6.50;99.90
50969;DHT22;36982;51.474;7.228;2023-02-01T09:11:18;6.50;99.90
50969;DHT22;36982;51.474;7.228;2023-02-01T09:13:46;6.40;99.90
50969;DHT22;36982;51.474;7.228;2023-02-01T09:16:12;6.40;99.90
50969;DHT22;36982;51.474;7.228;2023-02-01T09:18:38;6.40;99.90
50969;DHT22;36982;51.474;7.228;2023-02-01T09:21:05;6.40;99.90
50969;DHT22;36982;51.474;7.228;2023-02-01T09:23:31;6.40;99.90
50969;DHT22;36982;51.474;7.228;2023-02-01T09:26:01;6.40;99.90
50969;DHT22;36982;51.474;7.228;2023-02-01T09:28:26;6.50;99.90
50969;DHT22;36982;51.474;7.228;2023-02-01T09:30:56;6.50;99.90
50969;DHT22;36982;51.474;7.228;2023-02-01T09:33:23;6.70;99.90
50969;DHT22;36982;51.474;7.228;2023-02-01T09:36:03;6.60;99.90
50969;DHT22;36982;51.474;7.228;2023-02-01T09:38:29;6.60;99.90
50969;DHT22;36982;51.474;7.228;2023-02-01T09:40:56;6.60;99.90
50969;DHT22;36982;51.474;7.228;2023-02-01T09:43:51;6.60;99.90
50969;DHT22;36982;51.474;7.228;2023-02-01T09:46:26;6.70;99.90
50969;DHT22;36982;51.474;7.228;2023-02-01T09:48:58;6.60;99.90
50969;DHT22;36982;51.474;7.228;2023-02-01T09:51:36;6.70;99.90
50969;DHT22;36982;51.474;7.228;2023-02-01T09:54:07;6.60;99.90
50969;DHT22;36982;51.474;7.228;2023-02-01T09:57:40;6.60;99.90
50969;DHT22;36982;51.474;7.228;2023-02-01T09:59:46;6.70;99.90
50969;DHT22;36982;51.474;7.228;2023-02-01T10:02:18;6.80;99.90
50969;DHT22;36982;51.474;7.228;2023-02-01T10:04:46;6.70;99.90
50969;DHT22;36982;51.474;7.228;2023-02-01T10:10:35;6.70;99.90
50969;DHT22;36982;51.474;7.228;2023-02-01T10:13:31;6.70;99.90
50969;DHT22;36982;51.474;7.228;2023-02-01T10:27:06;6.90;99.90
50969;DHT22;36982;51.474;7.228;2023-02-01T10:29:39;6.90;99.90
50969;DHT22;36982;51.474;7.228;2023-02-01T10:32:14;6.90;99.90
50969;DHT22;36982;51.474;7.228;2023-02-01T10:34:41;6.90;99.90
50969;DHT22;36982;51.474;7.228;2023-02-01T10:39:56;6.90;99.90
50969;DHT22;36982;51.474;7.228;2023-02-01T10:42:26;7.00;99.90
50969;DHT22;36982;51.474;7.228;2023-02-01T10:44:53;6.90;99.90
50969;DHT22;36982;51.474;7.228;2023-02-01T10:47:20;6.90;99.90
50969;DHT22;36982;51.474;7.228;2023-02-01T10:49:57;6.80;99.90
50969;DHT22;36982;51.474;7.228;2023-02-01T10:52:38;6.80;99.90
50969;DHT22;36982;51.474;7.228;2023-02-01T10:57:56;6.90;99.90
50969;DHT22;36982;51.474;7.228;2023-02-01T11:00:22;6.90;99.90
50969;DHT22;36982;51.474;7.228;2023-02-01T11:02:48;6.90;99.90
50969;DHT22;36982;51.474;7.228;2023-02-01T11:05:15;6.80;99.90
50969;DHT22;36982;51.474;7.228;2023-02-01T11:07:48;6.90;99.90
50969;DHT22;36982;51.474;7.228;2023-02-01T11:10:35;6.80;99.90
50969;DHT22;36982;51.474;7.228;2023-02-01T11:13:02;6.80;99.90
50969;DHT22;36982;51.474;7.228;2023-02-01T11:15:28;6.80;99.90
50969;DHT22;36982;51.474;7.228;2023-02-01T11:17:54;6.80;99.90
50969;DHT22;36982;51.474;7.228;2023-02-01T11:20:39;6.80;99.90
50969;DHT22;36982;51.474;7.228;2023-02-01T11:23:15;6.80;99.90
50969;DHT22;36982;51.474;7.228;2023-02-01T11:25:49;6.90;99.90
50969;DHT22;36982;51.474;7.228;2023-02-01T11:28:15;6.90;99.90
50969;DHT22;36982;51.474;7.228;2023-02-01T11:30:44;7.00;99.90
50969;DHT22;36982;51.474;7.228;2023-02-01T11:33:23;7.00;99.90
50969;DHT22;36982;51.474;7.228;2023-02-01T11:35:52;7.00;99.90
50969;DHT22;36982;51.474;7.228;2023-02-01T11:38:22;7.00;99.90
50969;DHT22;36982;51.474;7.228;2023-02-01T11:40:50;7.00;99.90
50969;DHT22;36982;51.474;7.228;2023-02-01T11:43:24;7.00;99.90
50969;DHT22;36982;51.474;7.228;2023-02-01T11:45:58;7.00;99.90
50969;DHT22;36982;51.474;7.228;2023-02-01T11:48:27;7.10;99.90
50969;DHT22;36982;51.474;7.228;2023-02-01T11:59:45;7.10;99.90
50969;DHT22;36982;51.474;7.228;2023-02-01T12:05:06;6.90;99.90
50969;DHT22;36982;51.474;7.228;2023-02-01T12:15:27;6.40;99.90
50969;DHT22;36982;51.474;7.228;2023-02-01T12:26:56;6.30;99.90
50969;DHT22;36982;51.474;7.228;2023-02-01T12:29:47;6.30;99.90
50969;DHT22;36982;51.474;7.228;2023-02-01T12:43:20;6.40;99.90
50969;DHT22;36982;51.474;7.228;2023-02-01T12:45:59;6.40;99.90
50969;DHT22;36982;51.474;7.228;2023-02-01T12:50:55;6.50;99.90
50969;DHT22;36982;51.474;7.228;2023-02-01T12:56:02;6.50;99.90
50969;DHT22;36982;51.474;7.228;2023-02-01T12:58:39;6.60;99.90
50969;DHT22;36982;51.474;7.228;2023-02-01T13:01:15;6.70;99.90
50969;DHT22;36982;51.474;7.228;2023-02-01T13:04:02;6.80;99.90
50969;DHT22;36982;51.474;7.228;2023-02-01T13:06:54;6.80;99.90
50969;DHT22;36982;51.474;7.228;2023-02-01T13:09:51;6.80;99.90
50969;DHT22;36982;51.474;7.228;2023-02-01T13:12:37;6.90;99.90
50969;DHT22;36982;51.474;7.228;2023-02-01T13:17:35;6.80;99.90
50969;DHT22;36982;51.474;7.228;2023-02-01T13:20:24;6.80;99.90
50969;DHT22;36982;51.474;7.228;2023-02-01T13:23:04;6.80;99.90
50969;DHT22;36982;51.474;7.228;2023-02-01T13:25:50;6.90;99.90
50969;DHT22;36982;51.474;7.228;2023-02-01T13:45:01;7.00;99.90
50969;DHT22;36982;51.474;7.228;2023-02-01T13:49:57;7.10;99.90
50969;DHT22;36982;51.474;7.228;2023-02-01T13:55:26;7.20;99.90
50969;DHT22;36982;51.474;7.228;2023-02-01T13:57:51;7.20;99.90
50969;DHT22;36982;51.474;7.228;2023-02-01T14:00:35;7.20;99.90
50969;DHT22;36982;51.474;7.228;2023-02-01T14:10:53;7.30;99.90
50969;DHT22;36982;51.474;7.228;2023-02-01T14:13:29;7.30;99.90
50969;DHT22;36982;51.474;7.228;2023-02-01T14:21:31;7.20;99.90
50969;DHT22;36982;51.474;7.228;2023-02-01T14:24:04;7.20;99.90
50969;DHT22;36982;51.474;7.228;2023-02-01T14:26:48;7.30;99.90
50969;DHT22;36982;51.474;7.228;2023-02-01T14:29:36;7.30;99.90
50969;DHT22;36982;51.474;7.228;2023-02-01T14:32:21;7.40;99.90
50969;DHT22;36982;51.474;7.228;2023-02-01T14:47:53;7.50;99.90
50969;DHT22;36982;51.474;7.228;2023-02-01T15:00:55;7.50;99.90
50969;DHT22;36982;51.474;7.228;2023-02-01T15:03:55;7.50;99.90
50969;DHT22;36982;51.474;7.228;2023-02-01T15:06:36;7.40;99.90
50969;DHT22;36982;51.474;7.228;2023-02-01T15:14:21;7.50;99.90
50969;DHT22;36982;51.474;7.228;2023-02-01T15:16:46;7.50;99.90
50969;DHT22;36982;51.474;7.228;2023-02-01T15:19:20;7.50;99.90
50969;DHT22;36982;51.474;7.228;2023-02-01T15:21:48;7.50;99.90
50969;DHT22;36982;51.474;7.228;2023-02-01T15:26:44;7.50;99.90
50969;DHT22;36982;51.474;7.228;2023-02-01T15:29:14;7.60;99.90
50969;DHT22;36982;51.474;7.228;2023-02-01T15:31:48;7.60;99.90
50969;DHT22;36982;51.474;7.228;2023-02-01T15:34:14;7.60;99.90
50969;DHT22;36982;51.474;7.228;2023-02-01T15:36:41;7.70;99.90
50969;DHT22;36982;51.474;7.228;2023-02-01T15:39:22;7.70;99.90
50969;DHT22;36982;51.474;7.228;2023-02-01T15:41:59;7.70;99.90
50969;DHT22;36982;51.474;7.228;2023-02-01T15:44:34;7.60;99.90
50969;DHT22;36982;51.474;7.228;2023-02-01T15:47:13;7.60;99.90
50969;DHT22;36982;51.474;7.228;2023-02-01T15:49:41;7.50;99.90
50969;DHT22;36982;51.474;7.228;2023-02-01T15:52:34;7.50;99.90
50969;DHT22;36982;51.474;7.228;2023-02-01T15:55:03;7.60;99.90
50969;DHT22;36982;51.474;7.228;2023-02-01T15:57:34;7.60;99.90
50969;DHT22;36982;51.474;7.228;2023-02-01T16:00:23;7.70;99.90
50969;DHT22;36982;51.474;7.228;2023-02-01T16:02:55;7.70;99.90
50969;DHT22;36982;51.474;7.228;2023-02-01T16:05:33;7.70;99.90
50969;DHT22;36982;51.474;7.228;2023-02-01T16:10:39;7.70;99.90
50969;DHT22;36982;51.474;7.228;2023-02-01T16:13:06;7.80;99.90
50969;DHT22;36982;51.474;7.228;2023-02-01T16:15:32;7.70;99.90
50969;DHT22;36982;51.474;7.228;2023-02-01T16:17:58;7.70;99.90
50969;DHT22;36982;51.474;7.228;2023-02-01T16:20:24;7.70;99.90
50969;DHT22;36982;51.474;7.228;2023-02-01T16:22:52;7.70;99.90
50969;DHT22;36982;51.474;7.228;2023-02-01T16:25:18;7.70;99.90
50969;DHT22;36982;51.474;7.228;2023-02-01T16:27:44;7.70;99.90
50969;DHT22;36982;51.474;7.228;2023-02-01T16:30:09;7.70;99.90
50969;DHT22;36982;51.474;7.228;2023-02-01T16:32:36;7.80;99.90
50969;DHT22;36982;51.474;7.228;2023-02-01T16:35:22;7.70;99.90
50969;DHT22;36982;51.474;7.228;2023-02-01T16:37:48;7.70;99.90
50969;DHT22;36982;51.474;7.228;2023-02-01T16:40:18;7.70;99.90
50969;DHT22;36982;51.474;7.228;2023-02-01T16:42:46;7.70;99.90
50969;DHT22;36982;51.474;7.228;2023-02-01T16:45:13;7.50;99.90
50969;DHT22;36982;51.474;7.228;2023-02-01T16:47:40;7.40;99.90
50969;DHT22;36982;51.474;7.228;2023-02-01T16:50:16;7.20;99.90
50969;DHT22;36982;51.474;7.228;2023-02-01T16:52:42;7.10;99.90
50969;DHT22;36982;51.474;7.228;2023-02-01T16:55:19;7.00;99.90
50969;DHT22;36982;51.474;7.228;2023-02-01T16:57:46;7.00;99.90
50969;DHT22;36982;51.474;7.228;2023-02-01T17:00:13;6.90;99.90
50969;DHT22;36982;51.474;7.228;2023-02-01T17:02:39;6.90;99.90
50969;DHT22;36982;51.474;7.228;2023-02-01T17:05:09;6.80;99.90
50969;DHT22;36982;51.474;7.228;2023-02-01T17:07:35;6.80;99.90
50969;DHT22;36982;51.474;7.228;2023-02-01T17:10:01;7.00;99.90
50969;DHT22;36982;51.474;7.228;2023-02-01T17:12:30;6.90;99.90
50969;DHT22;36982;51.474;7.228;2023-02-01T17:14:56;7.00;99.90
50969;DHT22;36982;51.474;7.228;2023-02-01T17:17:24;7.00;99.90
50969;DHT22;36982;51.474;7.228;2023-02-01T17:19:52;6.70;99.90
50969;DHT22;36982;51.474;7.228;2023-02-01T17:22:22;6.20;99.90
50969;DHT22;36982;51.474;7.228;2023-02-01T17:24:47;5.70;99.90
50969;DHT22;36982;51.474;7.228;2023-02-01T17:27:13;5.50;99.90
50969;DHT22;36982;51.474;7.228;2023-02-01T17:29:39;5.40;99.90
50969;DHT22;36982;51.474;7.228;2023-02-01T17:32:19;5.30;99.90
50969;DHT22;36982;51.474;7.228;2023-02-01T17:34:46;5.30;99.90
50969;DHT22;36982;51.474;7.228;2023-02-01T17:37:38;5.30;99.90
50969;DHT22;36982;51.474;7.228;2023-02-01T17:40:04;5.40;99.90
50969;DHT22;36982;51.474;7.228;2023-02-01T17:42:30;5.30;99.90
50969;DHT22;36982;51.474;7.228;2023-02-01T17:44:57;5.40;99.90
50969;DHT22;36982;51.474;7.228;2023-02-01T17:47:24;5.50;99.90
50969;DHT22;36982;51.474;7.228;2023-02-01T17:49:50;5.50;99.90
50969;DHT22;36982;51.474;7.228;2023-02-01T17:52:21;5.50;99.90
50969;DHT22;36982;51.474;7.228;2023-02-01T17:54:48;5.70;99.90
50969;DHT22;36982;51.474;7.228;2023-02-01T17:57:15;5.80;99.90
50969;DHT22;36982;51.474;7.228;2023-02-01T17:59:41;5.90;99.90
50969;DHT22;36982;51.474;7.228;2023-02-01T18:02:21;6.00;99.90
50969;DHT22;36982;51.474;7.228;2023-02-01T18:04:48;6.00;99.90
50969;DHT22;36982;51.474;7.228;2023-02-01T18:07:14;6.10;99.90
50969;DHT22;36982;51.474;7.228;2023-02-01T18:09:40;6.10;99.90
50969;DHT22;36982;51.474;7.228;2023-02-01T18:12:18;6.20;99.90
50969;DHT22;36982;51.474;7.228;2023-02-01T18:14:45;6.20;99.90
50969;DHT22;36982;51.474;7.228;2023-02-01T18:17:10;6.30;99.90
50969;DHT22;36982;51.474;7.228;2023-02-01T18:19:37;6.30;99.90
50969;DHT22;36982;51.474;7.228;2023-02-01T18:22:02;6.30;99.90
50969;DHT22;36982;51.474;7.228;2023-02-01T18:24:29;6.40;99.90
50969;DHT22;36982;51.474;7.228;2023-02-01T18:26:58;6.40;99.90
50969;DHT22;36982;51.474;7.228;2023-02-01T18:29:24;6.40;99.90
50969;DHT22;36982;51.474;7.228;2023-02-01T18:31:50;6.40;99.90
50969;DHT22;36982;51.474;7.228;2023-02-01T18:34:16;6.50;99.90
50969;DHT22;36982;51.474;7.228;2023-02-01T18:36:49;6.50;99.90
50969;DHT22;36982;51.474;7.228;2023-02-01T18:39:16;6.50;99.90
50969;DHT22;36982;51.474;7.228;2023-02-01T18:41:43;5.90;99.90
50969;DHT22;36982;51.474;7.228;2023-02-01T18:44:16;4.90;99.90
50969;DHT22;36982;51.474;7.228;2023-02-01T18:46:42;4.30;99.90